createdAt,value
2023-07-10T00:02:13.336Z,3.50
2023-07-10T00:04:41.418Z,4.32
2023-07-10T00:07:10.062Z,5.38
2023-07-10T00:09:38.160Z,5.22
2023-07-10T00:12:07.736Z,5.05
2023-07-10T00:14:36.101Z,6.70
2023-07-10T00:17:04.464Z,4.72
2023-07-10T00:19:34.053Z,9.77
2023-07-10T00:22:02.166Z,4.55
2023-07-10T00:24:30.240Z,4.68
2023-07-10T00:26:58.356Z,6.18
2023-07-10T00:29:32.762Z,5.13
2023-07-10T00:32:04.095Z,5.10
2023-07-10T00:34:33.614Z,3.80
2023-07-10T00:37:01.740Z,6.45
2023-07-10T00:39:32.057Z,3.97
2023-07-10T00:42:02.359Z,4.78
2023-07-10T00:44:34.660Z,5.07
2023-07-10T00:47:08.271Z,10.07
2023-07-10T00:49:44.198Z,5.63
2023-07-10T00:52:18.413Z,6.80
2023-07-10T00:54:49.427Z,7.50
2023-07-10T00:57:21.624Z,5.03
2023-07-10T00:59:51.740Z,5.28
2023-07-10T01:06:58.432Z,4.45
2023-07-10T01:09:26.879Z,8.32
2023-07-10T01:11:55.423Z,6.78
2023-07-10T01:14:24.521Z,5.13
2023-07-10T01:16:53.660Z,3.75
2023-07-10T01:19:26.467Z,4.38
2023-07-10T01:21:56.324Z,5.25
2023-07-10T01:24:24.466Z,7.65
2023-07-10T01:26:53.595Z,5.30
2023-07-10T01:29:25.530Z,4.35
2023-07-10T01:31:55.657Z,6.43
2023-07-10T01:34:29.055Z,5.53
2023-07-10T01:36:58.581Z,4.82
2023-07-10T01:39:37.038Z,5.18
2023-07-10T01:42:05.702Z,3.55
2023-07-10T01:44:36.693Z,6.05
2023-07-10T01:47:08.557Z,6.43
2023-07-10T01:49:39.777Z,12.98
2023-07-10T01:52:11.140Z,5.25
2023-07-10T01:54:39.932Z,7.47
2023-07-10T01:57:08.559Z,4.72
2023-07-10T01:59:36.658Z,5.45
2023-07-10T02:02:05.730Z,4.35
2023-07-10T02:04:34.255Z,3.25
2023-07-10T02:07:03.768Z,9.98
2023-07-10T02:09:33.968Z,4.72
2023-07-10T02:12:03.874Z,6.30
2023-07-10T02:14:32.003Z,5.07
2023-07-10T02:17:00.206Z,9.30
2023-07-10T02:19:28.713Z,8.45
2023-07-10T02:21:57.592Z,3.60
2023-07-10T02:24:27.556Z,6.75
2023-07-10T02:26:57.091Z,4.47
2023-07-10T02:29:25.276Z,4.82
2023-07-10T02:31:53.617Z,4.00
2023-07-10T02:34:22.190Z,5.70
2023-07-10T02:36:50.376Z,5.78
2023-07-10T02:39:18.480Z,4.25
2023-07-10T02:41:46.940Z,4.07
2023-07-10T02:44:16.397Z,6.72
2023-07-10T02:46:44.483Z,4.85
2023-07-10T02:49:13.074Z,5.15
2023-07-10T02:51:41.877Z,7.85
2023-07-10T02:54:11.451Z,6.13
2023-07-10T02:56:39.769Z,6.35
2023-07-10T02:59:07.917Z,8.60
2023-07-10T03:01:37.435Z,4.55
2023-07-10T03:04:06.507Z,4.30
2023-07-10T03:06:34.680Z,10.70
2023-07-10T03:09:04.259Z,6.15
2023-07-10T03:11:32.368Z,4.90
2023-07-10T03:14:02.544Z,8.00
2023-07-10T03:16:30.899Z,6.63
2023-07-10T03:19:00.807Z,6.30
2023-07-10T03:21:31.035Z,6.35
2023-07-10T03:23:59.965Z,8.57
2023-07-10T03:26:28.108Z,8.25
2023-07-10T03:29:09.703Z,10.68
2023-07-10T03:31:37.841Z,7.25
2023-07-10T03:34:07.582Z,6.20
2023-07-10T03:36:36.351Z,12.27
2023-07-10T03:39:04.839Z,8.90
2023-07-10T03:41:34.219Z,9.20
2023-07-10T03:44:02.628Z,9.32
2023-07-10T03:46:30.754Z,7.97
2023-07-10T03:48:58.869Z,9.25
2023-07-10T03:51:28.287Z,7.88
2023-07-10T03:53:56.425Z,11.40
2023-07-10T03:56:24.532Z,6.80
2023-07-10T03:58:52.732Z,8.88
2023-07-10T04:01:20.839Z,9.52
2023-07-10T04:03:49.031Z,12.35
2023-07-10T04:06:18.336Z,13.95
2023-07-10T04:08:49.103Z,13.38
2023-07-10T04:11:20.421Z,12.98
2023-07-10T04:13:49.504Z,14.88
2023-07-10T04:16:20.160Z,12.68
2023-07-10T04:18:49.446Z,11.82
2023-07-10T04:21:19.495Z,7.88
2023-07-10T04:23:49.601Z,10.27
2023-07-10T04:26:19.781Z,12.85
2023-07-10T04:28:48.926Z,10.27
2023-07-10T04:31:17.694Z,11.52
2023-07-10T04:33:46.126Z,13.90
2023-07-10T04:36:14.584Z,8.90
2023-07-10T04:38:42.709Z,11.90
2023-07-10T04:41:14.221Z,9.07
2023-07-10T04:43:42.569Z,9.50
2023-07-10T04:46:13.386Z,10.70
2023-07-10T04:48:44.040Z,9.93
2023-07-10T04:51:14.402Z,12.48
2023-07-10T04:53:42.738Z,13.88
2023-07-10T04:56:13.692Z,13.05
2023-07-10T04:58:53.687Z,14.65
2023-07-10T05:01:23.843Z,15.40
2023-07-10T05:03:52.235Z,19.55
2023-07-10T05:06:21.067Z,17.52
2023-07-10T05:08:49.789Z,18.73
2023-07-10T05:11:19.254Z,21.70
2023-07-10T05:13:47.397Z,24.65
2023-07-10T05:16:16.020Z,21.95
2023-07-10T05:18:44.167Z,17.95
2023-07-10T05:21:12.292Z,20.27
2023-07-10T05:23:40.473Z,22.83
2023-07-10T05:26:11.152Z,22.25
2023-07-10T05:28:40.995Z,23.02
2023-07-10T05:31:11.964Z,26.58
2023-07-10T05:33:41.022Z,27.52
2023-07-10T05:36:11.905Z,30.77
2023-07-10T05:38:40.771Z,27.17
2023-07-10T05:41:09.618Z,32.65
2023-07-10T05:43:39.744Z,33.78
2023-07-10T05:46:08.289Z,27.40
2023-07-10T05:48:36.865Z,31.00
2023-07-10T05:51:05.105Z,30.48
2023-07-10T05:53:35.112Z,32.95
2023-07-10T05:56:04.800Z,33.45
2023-07-10T05:58:35.226Z,36.00
2023-07-10T06:01:05.197Z,29.35
2023-07-10T06:03:35.392Z,33.35
2023-07-10T06:06:06.102Z,35.70
2023-07-10T06:08:36.181Z,31.17
2023-07-10T06:11:05.108Z,24.45
2023-07-10T06:13:33.974Z,19.25
2023-07-10T06:16:06.180Z,28.35
2023-07-10T06:18:35.880Z,34.08
2023-07-10T06:21:04.115Z,40.78
2023-07-10T06:23:32.648Z,26.20
2023-07-10T06:26:01.505Z,22.40
2023-07-10T06:28:31.905Z,24.38
2023-07-10T06:31:02.023Z,20.10
2023-07-10T06:33:31.724Z,22.90
2023-07-10T06:36:01.915Z,26.33
2023-07-10T06:38:30.440Z,26.45
2023-07-10T06:40:58.537Z,30.60
2023-07-10T06:43:26.687Z,27.80
2023-07-10T06:45:57.781Z,28.70
2023-07-10T06:48:26.409Z,27.70
2023-07-10T06:50:55.715Z,28.67
2023-07-10T06:53:28.249Z,25.67
2023-07-10T06:55:59.139Z,30.95
2023-07-10T06:58:28.144Z,29.15
2023-07-10T07:00:56.654Z,24.10
2023-07-10T07:03:25.776Z,25.80
2023-07-10T07:05:54.990Z,23.80
2023-07-10T07:08:25.971Z,22.27
2023-07-10T07:10:55.316Z,24.02
2023-07-10T07:13:23.566Z,24.15
2023-07-10T07:15:52.381Z,25.33
2023-07-10T07:18:21.314Z,17.67
2023-07-10T07:20:50.415Z,21.73
2023-07-10T07:23:18.872Z,25.00
2023-07-10T07:25:48.281Z,22.52
2023-07-10T07:28:16.462Z,21.30
2023-07-10T07:30:49.420Z,17.75
2023-07-10T07:33:19.487Z,19.20
2023-07-10T07:35:47.919Z,18.45
2023-07-10T07:38:16.438Z,18.00
2023-07-10T07:40:44.764Z,25.55
2023-07-10T07:43:14.255Z,23.08
2023-07-10T07:45:42.376Z,20.15
2023-07-10T07:48:11.586Z,20.20
2023-07-10T07:50:39.762Z,15.80
2023-07-10T07:53:07.882Z,16.95
2023-07-10T07:55:35.956Z,16.63
2023-07-10T07:58:04.101Z,21.73
2023-07-10T08:00:33.579Z,17.50
2023-07-10T08:03:01.765Z,19.77
2023-07-10T08:05:36.410Z,16.23
2023-07-10T08:08:06.013Z,17.88
2023-07-10T08:10:35.744Z,17.77
2023-07-10T08:13:05.872Z,18.13
2023-07-10T08:15:36.315Z,17.08
2023-07-10T08:18:04.856Z,18.75
2023-07-10T08:20:33.015Z,17.70
2023-07-10T08:23:02.743Z,19.23
2023-07-10T08:25:31.174Z,21.85
2023-07-10T08:28:00.160Z,25.05
2023-07-10T08:30:29.230Z,19.73
2023-07-10T08:32:58.772Z,24.92
2023-07-10T08:35:26.952Z,19.13
2023-07-10T08:37:55.108Z,16.92
2023-07-10T08:40:31.367Z,17.35
2023-07-10T08:43:03.547Z,19.08
2023-07-10T08:45:36.359Z,19.00
2023-07-10T08:48:24.398Z,15.10
2023-07-10T08:50:52.599Z,16.40
2023-07-10T08:53:26.747Z,16.88
2023-07-10T08:56:03.326Z,15.93
2023-07-10T08:58:35.259Z,17.45
2023-07-10T09:01:05.517Z,14.70
2023-07-10T09:03:41.723Z,14.20
2023-07-10T09:06:19.333Z,12.20
2023-07-10T09:08:49.760Z,14.73
2023-07-10T09:11:19.274Z,11.45
2023-07-10T09:13:54.200Z,12.20
2023-07-10T09:16:23.404Z,11.05
2023-07-10T09:18:55.790Z,12.18
2023-07-10T09:21:27.032Z,11.82
2023-07-10T09:23:56.373Z,11.98
2023-07-10T09:26:29.360Z,11.57
2023-07-10T09:29:06.749Z,12.25
2023-07-10T09:31:51.352Z,11.70
2023-07-10T09:34:24.941Z,16.40
2023-07-10T09:36:54.141Z,9.93
2023-07-10T09:39:22.992Z,10.25
2023-07-10T09:41:51.124Z,13.07
2023-07-10T09:44:21.242Z,11.38
2023-07-10T09:46:51.812Z,11.80
2023-07-10T09:49:23.896Z,12.10
2023-07-10T09:51:58.744Z,10.50
2023-07-10T09:54:35.714Z,12.10
2023-07-10T09:57:05.774Z,10.52
2023-07-10T09:59:34.320Z,11.45
2023-07-10T10:02:16.176Z,11.25
2023-07-10T10:04:45.912Z,12.73
2023-07-10T10:07:16.652Z,12.23
2023-07-10T10:09:44.765Z,11.00
2023-07-10T10:12:29.055Z,9.77
2023-07-10T10:15:01.819Z,10.25
2023-07-10T10:17:33.181Z,11.63
2023-07-10T10:20:10.154Z,10.35
2023-07-10T10:22:38.295Z,9.55
2023-07-10T10:25:14.736Z,9.68
2023-07-10T10:27:51.640Z,11.43
2023-07-10T10:30:27.624Z,7.70
2023-07-10T10:33:06.481Z,8.77
2023-07-10T10:35:50.805Z,12.65
2023-07-10T10:38:31.502Z,7.20
2023-07-10T10:41:13.131Z,9.07
2023-07-10T10:43:49.691Z,8.13
2023-07-10T10:46:35.767Z,9.25
2023-07-10T10:49:22.238Z,9.25
2023-07-10T10:52:01.971Z,10.85
2023-07-10T10:54:37.086Z,9.65
2023-07-10T10:57:22.483Z,12.35
2023-07-10T11:00:06.236Z,11.20
2023-07-10T11:02:49.774Z,10.20
2023-07-10T11:05:22.842Z,10.07
2023-07-10T11:07:58.729Z,9.05
2023-07-10T11:10:33.839Z,10.02
2023-07-10T11:13:02.240Z,9.98
2023-07-10T11:15:35.587Z,11.90
2023-07-10T11:18:04.165Z,13.77
2023-07-10T11:20:32.388Z,12.30
2023-07-10T11:23:03.538Z,11.07
2023-07-10T11:25:34.460Z,10.50
2023-07-10T11:28:19.949Z,9.30
2023-07-10T11:31:08.184Z,9.07
2023-07-10T11:33:36.257Z,9.60
2023-07-10T11:36:17.559Z,12.32
2023-07-10T11:39:11.096Z,11.02
2023-07-10T11:41:40.823Z,13.32
2023-07-10T11:44:21.463Z,10.60
2023-07-10T11:47:06.104Z,7.97
2023-07-10T11:49:47.785Z,10.13
2023-07-10T11:52:32.305Z,12.32
2023-07-10T11:55:12.402Z,9.10
2023-07-10T11:57:40.597Z,11.95
2023-07-10T12:00:26.636Z,11.32
2023-07-10T12:02:57.831Z,10.30
2023-07-10T12:05:28.137Z,12.70
2023-07-10T12:08:05.535Z,9.65
2023-07-10T12:10:40.222Z,12.20
2023-07-10T12:13:18.969Z,10.20
2023-07-10T12:15:48.429Z,8.80
2023-07-10T12:18:20.479Z,12.13
2023-07-10T12:20:51.869Z,12.35
2023-07-10T12:23:20.221Z,11.88
2023-07-10T12:25:51.477Z,14.60
2023-07-10T12:28:27.126Z,12.75
2023-07-10T12:30:59.774Z,13.18
2023-07-10T12:33:41.248Z,9.02
2023-07-10T12:36:21.862Z,15.15
2023-07-10T12:38:51.195Z,12.30
2023-07-10T12:41:21.768Z,10.77
2023-07-10T12:43:52.931Z,12.30
2023-07-10T12:46:25.738Z,14.20
2023-07-10T12:48:59.046Z,12.18
2023-07-10T12:51:31.260Z,12.77
2023-07-10T12:54:02.847Z,12.27
2023-07-10T12:56:35.473Z,9.30
2023-07-10T12:59:15.489Z,9.18
2023-07-10T13:01:51.783Z,9.75
2023-07-10T13:04:24.686Z,11.27
2023-07-10T13:07:16.673Z,11.30
2023-07-10T13:09:56.363Z,14.05
2023-07-10T13:12:29.826Z,13.52
2023-07-10T13:15:00.334Z,11.32
2023-07-10T13:17:31.443Z,9.73
2023-07-10T13:20:09.059Z,13.38
2023-07-10T13:22:39.724Z,9.48
2023-07-10T13:25:08.838Z,12.02
2023-07-10T13:27:38.299Z,9.52
2023-07-10T13:30:16.158Z,10.38
2023-07-10T13:32:44.443Z,15.07
2023-07-10T13:35:12.923Z,9.45
2023-07-10T13:37:41.633Z,10.63
2023-07-10T13:40:14.571Z,13.43
2023-07-10T13:42:44.049Z,12.30
2023-07-10T13:45:12.348Z,14.57
2023-07-10T13:47:40.508Z,11.38
2023-07-10T13:50:15.384Z,12.13
2023-07-10T13:52:43.643Z,11.02
2023-07-10T13:55:14.764Z,8.85
2023-07-10T13:57:45.641Z,9.07
2023-07-10T14:00:16.163Z,12.30
2023-07-10T14:02:48.343Z,10.25
2023-07-10T14:05:19.989Z,11.38
2023-07-10T14:07:48.781Z,12.30
2023-07-10T14:10:18.240Z,10.48
2023-07-10T14:12:47.859Z,9.35
2023-07-10T14:15:17.299Z,8.98
2023-07-10T14:17:46.110Z,9.20
2023-07-10T14:20:19.840Z,7.57
2023-07-10T14:22:47.978Z,10.82
2023-07-10T14:25:18.996Z,11.93
2023-07-10T14:27:48.740Z,11.00
2023-07-10T14:30:21.153Z,9.63
2023-07-10T14:32:49.633Z,7.97
2023-07-10T14:35:20.272Z,13.93
2023-07-10T14:37:50.073Z,9.80
2023-07-10T14:40:18.692Z,9.88
2023-07-10T14:42:48.490Z,8.77
2023-07-10T14:45:17.502Z,13.45
2023-07-10T14:47:46.969Z,11.13
2023-07-10T14:50:15.695Z,10.73
2023-07-10T14:52:45.462Z,9.40
2023-07-10T14:55:17.534Z,8.70
2023-07-10T14:57:45.983Z,8.18
2023-07-10T15:00:21.932Z,11.18
2023-07-10T15:02:50.314Z,8.13
2023-07-10T15:05:18.891Z,6.82
2023-07-10T15:07:47.088Z,8.57
2023-07-10T15:10:25.989Z,8.52
2023-07-10T15:13:01.292Z,9.60
2023-07-10T15:15:34.255Z,8.52
2023-07-10T15:18:03.485Z,10.40
2023-07-10T15:20:31.744Z,6.30
2023-07-10T15:22:59.847Z,6.43
2023-07-10T15:25:30.002Z,7.82
2023-07-10T15:27:58.256Z,8.40
2023-07-10T15:30:29.268Z,6.72
2023-07-10T15:32:58.880Z,9.23
2023-07-10T15:35:27.244Z,7.68
2023-07-10T15:37:56.071Z,12.65
2023-07-10T15:40:26.145Z,8.52
2023-07-10T15:42:56.715Z,4.97
2023-07-10T15:45:29.325Z,8.23
2023-07-10T15:48:01.781Z,7.78
2023-07-10T15:50:31.424Z,6.30
2023-07-10T15:52:59.528Z,10.13
2023-07-10T15:55:29.788Z,8.18
2023-07-10T15:57:58.770Z,8.48
2023-07-10T16:00:36.776Z,5.68
2023-07-10T16:03:16.360Z,7.47
2023-07-10T16:05:44.769Z,8.05
2023-07-10T16:08:16.468Z,7.20
2023-07-10T16:10:46.580Z,5.90
2023-07-10T16:13:19.004Z,6.22
2023-07-10T16:15:47.545Z,7.65
2023-07-10T16:18:24.202Z,7.65
2023-07-10T16:20:53.112Z,7.07
2023-07-10T16:23:26.897Z,8.05
2023-07-10T16:25:55.317Z,7.05
2023-07-10T16:28:25.612Z,7.28
2023-07-10T16:30:54.402Z,6.75
2023-07-10T16:33:25.973Z,7.18
2023-07-10T16:35:55.388Z,7.18
2023-07-10T16:38:25.447Z,8.40
2023-07-10T16:40:55.922Z,7.05
2023-07-10T16:43:31.861Z,5.40
2023-07-10T16:46:00.243Z,6.20
2023-07-10T16:48:30.998Z,6.13
2023-07-10T16:51:01.848Z,9.10
2023-07-10T16:53:31.620Z,4.88
2023-07-10T16:56:02.721Z,7.30
2023-07-10T16:58:33.258Z,7.55
2023-07-10T17:01:01.926Z,6.40
2023-07-10T17:03:34.768Z,7.95
2023-07-10T17:06:03.118Z,6.18
2023-07-10T17:08:31.438Z,5.40
2023-07-10T17:11:00.743Z,6.63
2023-07-10T17:13:33.535Z,4.88
2023-07-10T17:16:02.483Z,6.57
2023-07-10T17:18:32.843Z,5.00
2023-07-10T17:21:04.669Z,5.00
2023-07-10T17:23:34.890Z,6.05
2023-07-10T17:26:03.436Z,7.53
2023-07-10T17:28:35.276Z,5.75
2023-07-10T17:31:09.433Z,6.00
2023-07-10T17:33:44.419Z,4.75
2023-07-10T17:36:14.420Z,5.53
2023-07-10T17:38:43.390Z,4.80
2023-07-10T17:41:18.474Z,5.07
2023-07-10T17:43:47.837Z,4.25
2023-07-10T17:46:15.962Z,6.85
2023-07-10T17:48:45.505Z,5.85
2023-07-10T17:51:25.199Z,6.30
2023-07-10T17:53:53.544Z,6.40
2023-07-10T17:56:21.734Z,4.65
2023-07-10T17:58:49.848Z,5.78
2023-07-10T18:01:20.205Z,5.47
2023-07-10T18:03:50.102Z,8.77
2023-07-10T18:06:18.479Z,5.45
2023-07-10T18:08:46.612Z,4.00
2023-07-10T18:11:17.739Z,5.53
2023-07-10T18:13:48.169Z,7.32
2023-07-10T18:16:17.647Z,7.43
2023-07-10T18:18:45.945Z,7.57
2023-07-10T18:21:22.458Z,4.28
2023-07-10T18:23:51.542Z,6.38
2023-07-10T18:26:21.574Z,3.05
2023-07-10T18:28:51.243Z,5.65
2023-07-10T18:31:23.580Z,9.73
2023-07-10T18:33:52.516Z,3.03
2023-07-10T18:36:22.332Z,4.10
2023-07-10T18:38:50.489Z,4.85
2023-07-10T18:41:22.572Z,4.45
2023-07-10T18:43:53.631Z,3.35
2023-07-10T18:46:22.982Z,2.78
2023-07-10T18:48:51.928Z,3.10
2023-07-10T18:51:24.711Z,3.92
2023-07-10T18:53:53.905Z,4.40
2023-07-10T18:56:22.485Z,5.20
2023-07-10T18:58:50.851Z,2.78
2023-07-10T19:01:21.154Z,2.72
2023-07-10T19:03:49.705Z,3.17
2023-07-10T19:06:22.930Z,4.60
2023-07-10T19:08:51.701Z,3.28
2023-07-10T19:11:20.687Z,2.42
2023-07-10T19:13:49.760Z,2.60
2023-07-10T19:16:23.129Z,3.40
2023-07-10T19:18:55.973Z,4.60
2023-07-10T19:21:26.143Z,3.95
2023-07-10T19:23:54.297Z,10.23
2023-07-10T19:26:23.069Z,3.58
2023-07-10T19:28:51.951Z,2.83
2023-07-10T19:31:23.716Z,3.05
2023-07-10T19:33:52.597Z,3.17
2023-07-10T19:36:25.805Z,3.60
2023-07-10T19:38:54.666Z,3.50
2023-07-10T19:41:23.734Z,4.50
2023-07-10T19:43:51.946Z,4.28
2023-07-10T19:46:23.892Z,4.72
2023-07-10T19:48:52.367Z,2.88
2023-07-10T19:51:20.434Z,3.45
2023-07-10T19:53:50.632Z,2.38
2023-07-10T19:56:20.674Z,2.58
2023-07-10T19:58:51.338Z,2.67
2023-07-10T20:01:21.387Z,3.03
2023-07-10T20:03:50.733Z,6.57
2023-07-10T20:06:27.762Z,6.38
2023-07-10T20:08:57.585Z,5.78
2023-07-10T20:11:26.137Z,4.50
2023-07-10T20:13:54.424Z,3.38
2023-07-10T20:16:26.660Z,12.43
2023-07-10T20:18:55.432Z,2.65
2023-07-10T20:21:24.603Z,1.83
2023-07-10T20:23:53.984Z,3.35
2023-07-10T20:26:24.732Z,3.92
2023-07-10T20:28:53.577Z,3.78
2023-07-10T20:31:22.183Z,8.75
2023-07-10T20:33:50.966Z,3.75
2023-07-10T20:36:21.925Z,3.00
2023-07-10T20:38:51.569Z,2.97
2023-07-10T20:41:22.223Z,2.35
2023-07-10T20:43:51.747Z,2.55
2023-07-10T20:46:21.937Z,3.05
2023-07-10T20:48:51.166Z,2.30
2023-07-10T20:51:21.343Z,2.28
2023-07-10T20:53:51.593Z,3.03
2023-07-10T20:56:25.471Z,4.40
2023-07-10T20:58:57.045Z,2.88
2023-07-10T21:01:28.216Z,4.00
2023-07-10T21:03:57.904Z,4.25
2023-07-10T21:06:29.732Z,2.80
2023-07-10T21:09:00.124Z,2.60
2023-07-10T21:11:30.729Z,2.67
2023-07-10T21:14:00.934Z,2.20
2023-07-10T21:16:32.397Z,3.35
2023-07-10T21:19:05.749Z,2.90
2023-07-10T21:21:33.852Z,2.00
2023-07-10T21:24:01.920Z,2.35
2023-07-10T21:26:33.025Z,4.50
2023-07-10T21:29:02.706Z,5.57
2023-07-10T21:31:31.153Z,2.03
2023-07-10T21:34:00.498Z,5.47
2023-07-10T21:36:28.564Z,7.30
2023-07-10T21:38:56.674Z,2.75
2023-07-10T21:41:28.175Z,2.20
2023-07-10T21:43:58.159Z,3.47
2023-07-10T21:46:29.775Z,6.57
2023-07-10T21:48:58.925Z,1.85
2023-07-10T21:51:28.276Z,2.38
2023-07-10T21:53:56.474Z,3.05
2023-07-10T21:56:26.985Z,2.42
2023-07-10T21:58:57.201Z,5.22
2023-07-10T22:01:29.640Z,6.45
2023-07-10T22:04:00.840Z,1.50
2023-07-10T22:06:30.278Z,2.45
2023-07-10T22:08:58.546Z,2.00
2023-07-10T22:11:30.934Z,2.35
2023-07-10T22:14:00.154Z,2.25
2023-07-10T22:16:32.050Z,2.38
2023-07-10T22:19:03.105Z,1.95
2023-07-10T22:21:34.106Z,2.83
2023-07-10T22:24:03.347Z,2.40
2023-07-10T22:26:32.042Z,2.70
2023-07-10T22:29:00.177Z,2.40
2023-07-10T22:31:30.914Z,2.10
2023-07-10T22:33:59.222Z,2.15
2023-07-10T22:36:27.353Z,2.25
2023-07-10T22:38:55.572Z,2.10
2023-07-10T22:41:28.224Z,3.42
2023-07-10T22:43:58.771Z,2.33
2023-07-10T22:46:30.228Z,2.08
2023-07-10T22:48:59.703Z,4.72
2023-07-10T22:51:31.490Z,2.30
2023-07-10T22:54:00.910Z,4.10
2023-07-10T22:56:31.392Z,4.55
2023-07-10T22:59:00.276Z,4.72
2023-07-10T23:01:29.972Z,3.22
2023-07-10T23:03:58.298Z,4.28
2023-07-10T23:06:32.331Z,3.55
2023-07-10T23:09:00.788Z,1.52
2023-07-10T23:11:29.305Z,3.15
2023-07-10T23:13:57.540Z,2.75
2023-07-10T23:16:26.029Z,3.13
2023-07-10T23:18:57.631Z,2.38
2023-07-10T23:21:26.972Z,2.15
2023-07-10T23:23:55.178Z,3.25
2023-07-10T23:26:25.335Z,2.60
2023-07-10T23:28:54.514Z,2.33
2023-07-10T23:31:25.127Z,3.20
2023-07-10T23:33:55.352Z,2.60
2023-07-10T23:36:25.939Z,3.72
2023-07-10T23:38:56.144Z,2.20
2023-07-10T23:41:24.294Z,2.45
2023-07-10T23:43:52.521Z,2.28
2023-07-10T23:46:20.689Z,2.55
2023-07-10T23:48:48.873Z,5.82
2023-07-10T23:51:18.334Z,3.92
2023-07-10T23:53:46.457Z,7.68
2023-07-10T23:56:14.562Z,2.30
2023-07-10T23:58:42.682Z,2.65
